sensor_id;sensor_type;location;lat;lon;timestamp;pressure;altitude;pressure_sealevel;temperature;humidity
50349;BME280;36250;48.740;22.174;2023-07-24T00:01:42;100264.84;;;19.14;74.02
50349;BME280;36250;48.740;22.174;2023-07-24T00:04:07;100262.59;;;19.16;73.88
50349;BME280;36250;48.740;22.174;2023-07-24T00:06:32;100259.50;;;19.18;73.94
50349;BME280;36250;48.740;22.174;2023-07-24T00:08:58;100264.44;;;19.21;73.52
50349;BME280;36250;48.740;22.174;2023-07-24T00:11:23;100261.75;;;19.16;73.76
50349;BME280;36250;48.740;22.174;2023-07-24T00:13:48;100263.41;;;19.17;73.72
50349;BME280;36250;48.740;22.174;2023-07-24T00:16:13;100266.88;;;19.22;73.67
50349;BME280;36250;48.740;22.174;2023-07-24T00:18:39;100264.94;;;19.23;73.51
50349;BME280;36250;48.740;22.174;2023-07-24T00:21:04;100265.84;;;19.18;73.60
50349;BME280;36250;48.740;22.174;2023-07-24T00:23:29;100266.25;;;19.12;73.94
50349;BME280;36250;48.740;22.174;2023-07-24T00:25:55;100265.31;;;19.02;74.10
50349;BME280;36250;48.740;22.174;2023-07-24T00:28:20;100268.38;;;19.01;74.13
50349;BME280;36250;48.740;22.174;2023-07-24T00:30:45;100262.88;;;19.01;74.23
50349;BME280;36250;48.740;22.174;2023-07-24T00:33:11;100263.19;;;18.99;74.18
50349;BME280;36250;48.740;22.174;2023-07-24T00:35:36;100266.44;;;19.01;74.28
50349;BME280;36250;48.740;22.174;2023-07-24T00:38:01;100258.69;;;19.03;74.01
50349;BME280;36250;48.740;22.174;2023-07-24T00:40:27;100253.66;;;19.06;73.95
50349;BME280;36250;48.740;22.174;2023-07-24T00:42:52;100256.66;;;19.09;73.85
50349;BME280;36250;48.740;22.174;2023-07-24T00:45:17;100254.41;;;19.11;73.79
50349;BME280;36250;48.740;22.174;2023-07-24T00:47:43;100256.25;;;19.16;74.11
50349;BME280;36250;48.740;22.174;2023-07-24T00:50:10;100255.63;;;19.19;74.08
50349;BME280;36250;48.740;22.174;2023-07-24T00:52:36;100249.50;;;19.22;74.36
50349;BME280;36250;48.740;22.174;2023-07-24T00:55:03;100245.63;;;19.23;74.09
50349;BME280;36250;48.740;22.174;2023-07-24T00:57:28;100250.94;;;19.19;73.96
50349;BME280;36250;48.740;22.174;2023-07-24T00:59:54;100259.09;;;19.11;74.12
50349;BME280;36250;48.740;22.174;2023-07-24T01:02:19;100256.53;;;19.00;74.42
50349;BME280;36250;48.740;22.174;2023-07-24T01:04:45;100259.47;;;18.90;74.80
50349;BME280;36250;48.740;22.174;2023-07-24T01:07:11;100260.09;;;18.87;74.50
50349;BME280;36250;48.740;22.174;2023-07-24T01:09:37;100264.06;;;18.81;75.00
50349;BME280;36250;48.740;22.174;2023-07-24T01:12:27;100258.63;;;18.76;74.81
50349;BME280;36250;48.740;22.174;2023-07-24T01:17:30;100253.78;;;18.68;75.54
50349;BME280;36250;48.740;22.174;2023-07-24T01:19:58;100254.34;;;18.70;75.10
50349;BME280;36250;48.740;22.174;2023-07-24T01:27:31;100255.97;;;18.71;75.03
50349;BME280;36250;48.740;22.174;2023-07-24T01:29:56;100252.09;;;18.72;75.28
50349;BME280;36250;48.740;22.174;2023-07-24T01:32:22;100252.91;;;18.73;74.75
50349;BME280;36250;48.740;22.174;2023-07-24T01:34:48;100249.03;;;18.74;75.07
50349;BME280;36250;48.740;22.174;2023-07-24T01:37:14;100250.16;;;18.73;75.49
50349;BME280;36250;48.740;22.174;2023-07-24T01:39:44;100241.06;;;18.72;75.53
50349;BME280;36250;48.740;22.174;2023-07-24T01:42:11;100246.25;;;18.74;75.33
50349;BME280;36250;48.740;22.174;2023-07-24T01:44:37;100243.00;;;18.72;75.28
50349;BME280;36250;48.740;22.174;2023-07-24T01:47:02;100249.25;;;18.77;75.63
50349;BME280;36250;48.740;22.174;2023-07-24T01:49:27;100254.16;;;18.80;75.19
50349;BME280;36250;48.740;22.174;2023-07-24T01:51:53;100253.34;;;18.80;75.08
50349;BME280;36250;48.740;22.174;2023-07-24T01:54:18;100251.09;;;18.82;75.41
50349;BME280;36250;48.740;22.174;2023-07-24T01:56:43;100257.81;;;18.76;75.49
50349;BME280;36250;48.740;22.174;2023-07-24T01:59:09;100261.56;;;18.66;75.85
50349;BME280;36250;48.740;22.174;2023-07-24T02:01:34;100256.13;;;18.61;76.03
50349;BME280;36250;48.740;22.174;2023-07-24T02:04:00;100255.09;;;18.57;76.29
50349;BME280;36250;48.740;22.174;2023-07-24T02:06:25;100251.00;;;18.55;76.16
50349;BME280;36250;48.740;22.174;2023-07-24T02:08:51;100254.59;;;18.55;76.31
50349;BME280;36250;48.740;22.174;2023-07-24T02:11:17;100248.56;;;18.53;76.26
50349;BME280;36250;48.740;22.174;2023-07-24T02:13:46;100239.47;;;18.53;76.59
50349;BME280;36250;48.740;22.174;2023-07-24T02:16:12;100240.91;;;18.50;76.06
50349;BME280;36250;48.740;22.174;2023-07-24T02:18:40;100248.56;;;18.53;76.28
50349;BME280;36250;48.740;22.174;2023-07-24T02:21:05;100247.34;;;18.59;75.94
50349;BME280;36250;48.740;22.174;2023-07-24T02:23:31;100246.94;;;18.66;75.93
50349;BME280;36250;48.740;22.174;2023-07-24T02:25:56;100246.66;;;18.67;75.92
50349;BME280;36250;48.740;22.174;2023-07-24T02:28:21;100243.09;;;18.67;75.48
50349;BME280;36250;48.740;22.174;2023-07-24T02:30:47;100252.47;;;18.66;75.96
50349;BME280;36250;48.740;22.174;2023-07-24T02:33:13;100241.56;;;18.61;75.65
50349;BME280;36250;48.740;22.174;2023-07-24T02:35:39;100251.16;;;18.63;75.82
50349;BME280;36250;48.740;22.174;2023-07-24T02:38:05;100246.44;;;18.64;76.21
50349;BME280;36250;48.740;22.174;2023-07-24T02:40:30;100251.53;;;18.57;75.90
50349;BME280;36250;48.740;22.174;2023-07-24T02:42:56;100240.13;;;18.45;76.38
50349;BME280;36250;48.740;22.174;2023-07-24T02:45:21;100246.31;;;18.36;76.68
50349;BME280;36250;48.740;22.174;2023-07-24T02:47:46;100244.97;;;18.34;76.98
50349;BME280;36250;48.740;22.174;2023-07-24T02:50:12;100246.78;;;18.25;77.51
50349;BME280;36250;48.740;22.174;2023-07-24T02:52:37;100250.06;;;18.27;77.33
50349;BME280;36250;48.740;22.174;2023-07-24T02:55:02;100246.38;;;18.31;77.11
50349;BME280;36250;48.740;22.174;2023-07-24T02:57:28;100251.53;;;18.38;76.59
50349;BME280;36250;48.740;22.174;2023-07-24T02:59:53;100254.22;;;18.43;76.34
50349;BME280;36250;48.740;22.174;2023-07-24T03:02:18;100263.00;;;18.45;76.22
50349;BME280;36250;48.740;22.174;2023-07-24T03:04:44;100260.91;;;18.37;76.69
50349;BME280;36250;48.740;22.174;2023-07-24T03:07:09;100255.47;;;18.32;76.42
50349;BME280;36250;48.740;22.174;2023-07-24T03:09:34;100258.31;;;18.27;76.82
50349;BME280;36250;48.740;22.174;2023-07-24T03:11:59;100260.56;;;18.25;77.03
50349;BME280;36250;48.740;22.174;2023-07-24T03:14:25;100252.53;;;18.28;76.89
50349;BME280;36250;48.740;22.174;2023-07-24T03:16:51;100255.47;;;18.32;77.36
50349;BME280;36250;48.740;22.174;2023-07-24T03:19:16;100245.81;;;18.34;77.03
50349;BME280;36250;48.740;22.174;2023-07-24T03:21:42;100248.19;;;18.41;76.94
50349;BME280;36250;48.740;22.174;2023-07-24T03:24:08;100258.31;;;18.46;77.14
50349;BME280;36250;48.740;22.174;2023-07-24T03:26:33;100254.69;;;18.50;76.81
50349;BME280;36250;48.740;22.174;2023-07-24T03:29:00;100258.19;;;18.56;76.79
50349;BME280;36250;48.740;22.174;2023-07-24T03:31:25;100257.78;;;18.62;76.60
50349;BME280;36250;48.740;22.174;2023-07-24T03:33:50;100252.88;;;18.59;76.52
50349;BME280;36250;48.740;22.174;2023-07-24T03:36:16;100253.19;;;18.58;76.38
50349;BME280;36250;48.740;22.174;2023-07-24T03:38:41;100260.53;;;18.62;76.35
50349;BME280;36250;48.740;22.174;2023-07-24T03:41:06;100251.88;;;18.69;76.45
50349;BME280;36250;48.740;22.174;2023-07-24T03:43:32;100252.50;;;18.79;76.30
50349;BME280;36250;48.740;22.174;2023-07-24T03:45:57;100253.34;;;18.93;76.08
50349;BME280;36250;48.740;22.174;2023-07-24T03:48:22;100252.06;;;19.05;75.60
50349;BME280;36250;48.740;22.174;2023-07-24T03:50:50;100245.22;;;19.16;75.51
50349;BME280;36250;48.740;22.174;2023-07-24T03:53:16;100252.19;;;19.27;75.44
50349;BME280;36250;48.740;22.174;2023-07-24T03:55:41;100239.56;;;19.34;74.40
50349;BME280;36250;48.740;22.174;2023-07-24T03:58:06;100240.53;;;19.43;74.85
50349;BME280;36250;48.740;22.174;2023-07-24T04:00:32;100237.25;;;19.55;74.66
50349;BME280;36250;48.740;22.174;2023-07-24T04:02:57;100237.53;;;19.67;74.02
50349;BME280;36250;48.740;22.174;2023-07-24T04:05:22;100232.19;;;19.84;73.69
50349;BME280;36250;48.740;22.174;2023-07-24T04:07:48;100235.72;;;19.98;73.59
50349;BME280;36250;48.740;22.174;2023-07-24T04:10:13;100225.59;;;20.07;73.29
50349;BME280;36250;48.740;22.174;2023-07-24T04:12:38;100231.59;;;20.23;72.90
50349;BME280;36250;48.740;22.174;2023-07-24T04:15:04;100236.69;;;20.29;72.37
50349;BME280;36250;48.740;22.174;2023-07-24T04:17:30;100227.38;;;20.48;72.00
50349;BME280;36250;48.740;22.174;2023-07-24T04:19:55;100225.06;;;20.63;70.46
50349;BME280;36250;48.740;22.174;2023-07-24T04:22:20;100226.41;;;20.74;70.63
50349;BME280;36250;48.740;22.174;2023-07-24T04:24:46;100226.97;;;20.85;69.63
50349;BME280;36250;48.740;22.174;2023-07-24T04:27:11;100229.59;;;20.90;69.73
50349;BME280;36250;48.740;22.174;2023-07-24T04:29:36;100228.97;;;20.93;69.85
50349;BME280;36250;48.740;22.174;2023-07-24T04:32:02;100231.03;;;20.87;70.22
50349;BME280;36250;48.740;22.174;2023-07-24T04:34:27;100232.41;;;20.68;71.41
50349;BME280;36250;48.740;22.174;2023-07-24T04:36:53;100241.44;;;20.60;71.77
50349;BME280;36250;48.740;22.174;2023-07-24T04:39:18;100241.56;;;20.55;72.33
50349;BME280;36250;48.740;22.174;2023-07-24T04:41:43;100240.50;;;20.42;72.93
50349;BME280;36250;48.740;22.174;2023-07-24T04:44:09;100240.63;;;20.37;74.23
50349;BME280;36250;48.740;22.174;2023-07-24T04:46:34;100239.84;;;20.37;73.66
50349;BME280;36250;48.740;22.174;2023-07-24T04:48:59;100229.31;;;20.47;73.63
50349;BME280;36250;48.740;22.174;2023-07-24T04:51:24;100229.94;;;20.66;73.35
50349;BME280;36250;48.740;22.174;2023-07-24T04:53:50;100235.66;;;20.70;73.27
50349;BME280;36250;48.740;22.174;2023-07-24T04:56:15;100234.56;;;20.79;72.12
50349;BME280;36250;48.740;22.174;2023-07-24T04:58:40;100230.50;;;20.77;72.12
50349;BME280;36250;48.740;22.174;2023-07-24T05:01:06;100223.19;;;20.81;72.08
50349;BME280;36250;48.740;22.174;2023-07-24T05:03:32;100230.56;;;20.94;71.80
50349;BME280;36250;48.740;22.174;2023-07-24T05:05:57;100231.97;;;21.05;70.04
50349;BME280;36250;48.740;22.174;2023-07-24T05:08:23;100230.56;;;21.16;69.59
50349;BME280;36250;48.740;22.174;2023-07-24T05:10:56;100231.59;;;21.37;69.94
50349;BME280;36250;48.740;22.174;2023-07-24T05:13:21;100230.53;;;21.55;69.17
50349;BME280;36250;48.740;22.174;2023-07-24T05:15:47;100231.19;;;21.70;68.22
50349;BME280;36250;48.740;22.174;2023-07-24T05:18:12;100228.00;;;21.85;67.70
50349;BME280;36250;48.740;22.174;2023-07-24T05:20:38;100231.75;;;21.97;67.18
50349;BME280;36250;48.740;22.174;2023-07-24T05:23:03;100233.56;;;22.10;67.03
50349;BME280;36250;48.740;22.174;2023-07-24T05:25:28;100244.47;;;22.15;66.03
50349;BME280;36250;48.740;22.174;2023-07-24T05:27:53;100240.41;;;22.21;65.45
50349;BME280;36250;48.740;22.174;2023-07-24T05:30:19;100234.88;;;22.30;65.87
50349;BME280;36250;48.740;22.174;2023-07-24T05:32:44;100234.19;;;22.50;65.29
50349;BME280;36250;48.740;22.174;2023-07-24T05:35:09;100233.06;;;22.68;65.05
50349;BME280;36250;48.740;22.174;2023-07-24T05:37:35;100236.13;;;22.75;64.13
50349;BME280;36250;48.740;22.174;2023-07-24T05:40:00;100243.59;;;22.92;63.49
50349;BME280;36250;48.740;22.174;2023-07-24T05:42:25;100237.75;;;22.94;63.40
50349;BME280;36250;48.740;22.174;2023-07-24T05:44:51;100241.44;;;23.06;63.43
50349;BME280;36250;48.740;22.174;2023-07-24T05:47:16;100234.69;;;23.16;62.78
50349;BME280;36250;48.740;22.174;2023-07-24T05:49:41;100229.81;;;23.13;62.32
50349;BME280;36250;48.740;22.174;2023-07-24T05:52:07;100224.09;;;23.09;62.21
50349;BME280;36250;48.740;22.174;2023-07-24T05:54:32;100224.75;;;23.06;62.41
50349;BME280;36250;48.740;22.174;2023-07-24T05:56:57;100239.59;;;23.19;62.40
50349;BME280;36250;48.740;22.174;2023-07-24T05:59:23;100217.66;;;23.26;62.03
50349;BME280;36250;48.740;22.174;2023-07-24T06:01:48;100222.88;;;23.36;62.11
50349;BME280;36250;48.740;22.174;2023-07-24T06:04:13;100217.31;;;23.36;61.35
50349;BME280;36250;48.740;22.174;2023-07-24T06:06:39;100213.34;;;23.45;61.87
50349;BME280;36250;48.740;22.174;2023-07-24T06:09:05;100221.63;;;23.54;61.72
50349;BME280;36250;48.740;22.174;2023-07-24T06:11:30;100220.25;;;23.69;61.14
50349;BME280;36250;48.740;22.174;2023-07-24T06:13:56;100214.81;;;23.72;60.74
50349;BME280;36250;48.740;22.174;2023-07-24T06:16:21;100211.03;;;23.77;60.57
50349;BME280;36250;48.740;22.174;2023-07-24T06:18:46;100213.59;;;23.82;60.44
50349;BME280;36250;48.740;22.174;2023-07-24T06:21:12;100227.25;;;23.95;60.38
50349;BME280;36250;48.740;22.174;2023-07-24T06:23:37;100225.97;;;23.93;59.07
50349;BME280;36250;48.740;22.174;2023-07-24T06:26:02;100225.13;;;23.92;59.83
50349;BME280;36250;48.740;22.174;2023-07-24T06:28:28;100225.28;;;23.96;59.80
50349;BME280;36250;48.740;22.174;2023-07-24T06:30:54;100225.59;;;23.94;60.12
50349;BME280;36250;48.740;22.174;2023-07-24T06:33:19;100222.16;;;23.97;59.86
50349;BME280;36250;48.740;22.174;2023-07-24T06:35:48;100222.78;;;24.03;59.68
50349;BME280;36250;48.740;22.174;2023-07-24T06:38:13;100222.88;;;24.15;59.50
50349;BME280;36250;48.740;22.174;2023-07-24T06:40:38;100217.38;;;24.27;60.03
50349;BME280;36250;48.740;22.174;2023-07-24T06:43:04;100217.06;;;24.41;59.56
50349;BME280;36250;48.740;22.174;2023-07-24T06:45:29;100218.72;;;24.42;58.90
50349;BME280;36250;48.740;22.174;2023-07-24T06:47:54;100210.16;;;24.47;58.24
50349;BME280;36250;48.740;22.174;2023-07-24T06:50:20;100210.63;;;24.49;58.63
50349;BME280;36250;48.740;22.174;2023-07-24T06:52:45;100212.75;;;24.64;58.92
50349;BME280;36250;48.740;22.174;2023-07-24T06:55:10;100214.47;;;24.77;58.01
50349;BME280;36250;48.740;22.174;2023-07-24T06:57:36;100214.75;;;24.75;58.46
50349;BME280;36250;48.740;22.174;2023-07-24T07:00:01;100217.72;;;24.91;58.94
50349;BME280;36250;48.740;22.174;2023-07-24T07:02:26;100205.56;;;25.08;58.39
50349;BME280;36250;48.740;22.174;2023-07-24T07:04:53;100211.97;;;25.20;57.92
50349;BME280;36250;48.740;22.174;2023-07-24T07:07:18;100209.63;;;25.22;57.91
50349;BME280;36250;48.740;22.174;2023-07-24T07:09:44;100202.09;;;25.23;58.25
50349;BME280;36250;48.740;22.174;2023-07-24T07:12:09;100192.91;;;25.34;56.90
50349;BME280;36250;48.740;22.174;2023-07-24T07:14:34;100203.59;;;25.32;58.07
50349;BME280;36250;48.740;22.174;2023-07-24T07:17:00;100197.13;;;25.40;57.92
50349;BME280;36250;48.740;22.174;2023-07-24T07:19:25;100188.41;;;25.54;57.59
50349;BME280;36250;48.740;22.174;2023-07-24T07:21:51;100179.34;;;25.57;57.45
50349;BME280;36250;48.740;22.174;2023-07-24T07:24:17;100189.66;;;25.69;56.36
50349;BME280;36250;48.740;22.174;2023-07-24T07:26:42;100177.91;;;25.75;56.94
50349;BME280;36250;48.740;22.174;2023-07-24T07:29:08;100184.28;;;25.88;56.28
50349;BME280;36250;48.740;22.174;2023-07-24T07:31:34;100186.44;;;26.06;57.16
50349;BME280;36250;48.740;22.174;2023-07-24T07:33:59;100184.50;;;26.35;55.77
50349;BME280;36250;48.740;22.174;2023-07-24T07:36:24;100191.47;;;26.56;55.01
50349;BME280;36250;48.740;22.174;2023-07-24T07:38:50;100185.44;;;26.54;55.28
50349;BME280;36250;48.740;22.174;2023-07-24T07:41:15;100187.88;;;26.56;55.31
50349;BME280;36250;48.740;22.174;2023-07-24T07:43:40;100194.84;;;26.34;55.80
50349;BME280;36250;48.740;22.174;2023-07-24T07:46:06;100201.69;;;26.37;56.58
50349;BME280;36250;48.740;22.174;2023-07-24T07:48:31;100199.06;;;26.28;56.46
50349;BME280;36250;48.740;22.174;2023-07-24T07:50:57;100205.19;;;26.34;56.42
50349;BME280;36250;48.740;22.174;2023-07-24T07:53:23;100198.91;;;26.37;56.53
50349;BME280;36250;48.740;22.174;2023-07-24T07:55:55;100199.28;;;26.35;55.91
50349;BME280;36250;48.740;22.174;2023-07-24T07:58:22;100192.97;;;26.38;56.44
50349;BME280;36250;48.740;22.174;2023-07-24T08:00:47;100193.19;;;26.45;57.31
50349;BME280;36250;48.740;22.174;2023-07-24T08:03:13;100192.09;;;26.50;56.01
50349;BME280;36250;48.740;22.174;2023-07-24T08:05:38;100190.50;;;26.64;56.66
50349;BME280;36250;48.740;22.174;2023-07-24T08:08:04;100189.31;;;26.78;55.62
50349;BME280;36250;48.740;22.174;2023-07-24T08:10:29;100182.44;;;26.75;56.27
50349;BME280;36250;48.740;22.174;2023-07-24T08:12:54;100179.50;;;26.56;56.24
50349;BME280;36250;48.740;22.174;2023-07-24T08:15:20;100175.41;;;26.38;56.93
50349;BME280;36250;48.740;22.174;2023-07-24T08:17:45;100175.97;;;26.43;56.66
50349;BME280;36250;48.740;22.174;2023-07-24T08:20:10;100181.38;;;26.52;57.30
50349;BME280;36250;48.740;22.174;2023-07-24T08:22:36;100183.41;;;26.67;55.92
50349;BME280;36250;48.740;22.174;2023-07-24T08:25:02;100178.41;;;26.88;56.66
50349;BME280;36250;48.740;22.174;2023-07-24T08:27:27;100185.88;;;27.00;55.90
50349;BME280;36250;48.740;22.174;2023-07-24T08:29:53;100182.03;;;27.04;55.22
50349;BME280;36250;48.740;22.174;2023-07-24T08:32:19;100170.56;;;27.25;55.48
50349;BME280;36250;48.740;22.174;2023-07-24T08:34:44;100165.22;;;27.51;54.49
50349;BME280;36250;48.740;22.174;2023-07-24T08:37:11;100166.13;;;27.55;54.32
50349;BME280;36250;48.740;22.174;2023-07-24T08:39:36;100166.66;;;27.61;53.56
50349;BME280;36250;48.740;22.174;2023-07-24T08:42:08;100164.22;;;27.59;53.88
50349;BME280;36250;48.740;22.174;2023-07-24T08:44:34;100160.53;;;27.55;54.71
50349;BME280;36250;48.740;22.174;2023-07-24T08:47:00;100178.13;;;27.40;54.16
50349;BME280;36250;48.740;22.174;2023-07-24T08:49:29;100179.53;;;27.34;54.62
50349;BME280;36250;48.740;22.174;2023-07-24T08:51:55;100178.13;;;27.40;54.50
50349;BME280;36250;48.740;22.174;2023-07-24T08:54:21;100172.00;;;27.50;53.92
50349;BME280;36250;48.740;22.174;2023-07-24T08:56:46;100166.06;;;27.71;54.26
50349;BME280;36250;48.740;22.174;2023-07-24T08:59:15;100169.84;;;27.78;53.79
50349;BME280;36250;48.740;22.174;2023-07-24T09:01:41;100160.50;;;27.90;53.53
50349;BME280;36250;48.740;22.174;2023-07-24T09:04:06;100162.72;;;28.00;53.16
50349;BME280;36250;48.740;22.174;2023-07-24T09:06:32;100159.66;;;28.05;53.52
50349;BME280;36250;48.740;22.174;2023-07-24T09:08:57;100155.31;;;28.27;52.93
50349;BME280;36250;48.740;22.174;2023-07-24T09:11:22;100148.56;;;28.50;52.88
50349;BME280;36250;48.740;22.174;2023-07-24T09:13:48;100144.56;;;28.51;52.17
50349;BME280;36250;48.740;22.174;2023-07-24T09:16:25;100128.56;;;28.29;52.42
50349;BME280;36250;48.740;22.174;2023-07-24T09:18:52;100137.88;;;28.37;52.86
50349;BME280;36250;48.740;22.174;2023-07-24T09:21:28;100137.72;;;28.26;52.60
50349;BME280;36250;48.740;22.174;2023-07-24T09:23:54;100137.63;;;28.23;52.59
50349;BME280;36250;48.740;22.174;2023-07-24T09:26:19;100130.41;;;28.22;52.94
50349;BME280;36250;48.740;22.174;2023-07-24T09:28:54;100136.03;;;28.22;52.83
50349;BME280;36250;48.740;22.174;2023-07-24T09:31:19;100125.44;;;28.34;54.24
50349;BME280;36250;48.740;22.174;2023-07-24T09:33:45;100120.44;;;28.43;52.18
50349;BME280;36250;48.740;22.174;2023-07-24T09:36:11;100118.13;;;28.49;52.16
50349;BME280;36250;48.740;22.174;2023-07-24T09:38:38;100115.94;;;28.39;53.13
50349;BME280;36250;48.740;22.174;2023-07-24T09:41:03;100113.31;;;28.27;53.21
50349;BME280;36250;48.740;22.174;2023-07-24T09:43:29;100116.84;;;28.24;53.29
50349;BME280;36250;48.740;22.174;2023-07-24T09:45:55;100113.09;;;28.16;53.04
50349;BME280;36250;48.740;22.174;2023-07-24T09:48:22;100100.94;;;28.09;53.23
50349;BME280;36250;48.740;22.174;2023-07-24T09:50:48;100104.63;;;28.13;54.05
50349;BME280;36250;48.740;22.174;2023-07-24T09:53:18;100098.19;;;28.31;54.08
50349;BME280;36250;48.740;22.174;2023-07-24T09:58:22;100093.84;;;28.34;53.81
50349;BME280;36250;48.740;22.174;2023-07-24T10:00:48;100098.06;;;28.24;53.90
50349;BME280;36250;48.740;22.174;2023-07-24T10:03:14;100087.97;;;28.20;54.42
50349;BME280;36250;48.740;22.174;2023-07-24T10:05:39;100099.03;;;28.13;54.82
50349;BME280;36250;48.740;22.174;2023-07-24T10:08:04;100082.38;;;28.00;55.13
50349;BME280;36250;48.740;22.174;2023-07-24T10:10:29;100072.53;;;27.87;55.37
50349;BME280;36250;48.740;22.174;2023-07-24T10:12:57;100076.03;;;27.84;56.17
50349;BME280;36250;48.740;22.174;2023-07-24T10:15:23;100063.88;;;27.96;56.27
50349;BME280;36250;48.740;22.174;2023-07-24T10:17:49;100049.34;;;28.29;55.62
50349;BME280;36250;48.740;22.174;2023-07-24T10:20:15;100040.03;;;28.67;54.64
50349;BME280;36250;48.740;22.174;2023-07-24T10:22:41;100042.50;;;28.94;53.58
50349;BME280;36250;48.740;22.174;2023-07-24T10:25:08;100037.81;;;29.28;52.79
50349;BME280;36250;48.740;22.174;2023-07-24T10:27:36;100029.88;;;29.34;52.29
50349;BME280;36250;48.740;22.174;2023-07-24T10:30:04;100026.78;;;29.42;52.09
50349;BME280;36250;48.740;22.174;2023-07-24T10:32:32;100026.97;;;29.56;51.17
50349;BME280;36250;48.740;22.174;2023-07-24T10:35:07;100020.91;;;29.84;52.75
50349;BME280;36250;48.740;22.174;2023-07-24T10:37:34;100010.06;;;30.19;50.95
50349;BME280;36250;48.740;22.174;2023-07-24T10:40:00;100002.94;;;30.32;50.49
50349;BME280;36250;48.740;22.174;2023-07-24T10:42:25;100012.69;;;30.38;50.07
50349;BME280;36250;48.740;22.174;2023-07-24T10:45:01;100005.34;;;30.30;49.61
50349;BME280;36250;48.740;22.174;2023-07-24T10:47:26;100016.16;;;30.25;50.28
50349;BME280;36250;48.740;22.174;2023-07-24T10:49:51;100016.44;;;30.16;50.25
50349;BME280;36250;48.740;22.174;2023-07-24T10:52:16;100022.81;;;30.10;50.26
50349;BME280;36250;48.740;22.174;2023-07-24T10:54:42;100020.34;;;30.05;51.22
50349;BME280;36250;48.740;22.174;2023-07-24T10:57:07;100019.66;;;30.15;51.03
50349;BME280;36250;48.740;22.174;2023-07-24T10:59:39;100001.28;;;30.24;51.06
50349;BME280;36250;48.740;22.174;2023-07-24T11:02:04;100004.47;;;30.23;50.89
50349;BME280;36250;48.740;22.174;2023-07-24T11:04:29;99994.81;;;30.20;50.95
50349;BME280;36250;48.740;22.174;2023-07-24T11:06:55;99983.69;;;30.27;51.04
50349;BME280;36250;48.740;22.174;2023-07-24T11:09:22;99974.19;;;30.42;50.64
50349;BME280;36250;48.740;22.174;2023-07-24T11:11:47;99980.81;;;30.68;50.19
50349;BME280;36250;48.740;22.174;2023-07-24T11:14:13;99976.72;;;30.58;50.62
50349;BME280;36250;48.740;22.174;2023-07-24T11:16:47;99985.06;;;30.47;51.38
50349;BME280;36250;48.740;22.174;2023-07-24T11:19:12;99984.69;;;30.52;51.48
50349;BME280;36250;48.740;22.174;2023-07-24T11:21:38;99981.75;;;30.86;50.41
50349;BME280;36250;48.740;22.174;2023-07-24T11:24:06;99972.69;;;31.10;49.59
50349;BME280;36250;48.740;22.174;2023-07-24T11:26:33;99985.56;;;31.18;48.71
50349;BME280;36250;48.740;22.174;2023-07-24T11:28:58;99980.78;;;31.26;48.65
50349;BME280;36250;48.740;22.174;2023-07-24T11:31:24;99982.00;;;31.28;48.76
50349;BME280;36250;48.740;22.174;2023-07-24T11:33:49;99981.16;;;31.17;48.74
50349;BME280;36250;48.740;22.174;2023-07-24T11:36:15;99978.84;;;31.37;49.13
50349;BME280;36250;48.740;22.174;2023-07-24T11:38:40;99980.97;;;31.57;48.11
50349;BME280;36250;48.740;22.174;2023-07-24T11:41:07;99977.00;;;31.69;49.02
50349;BME280;36250;48.740;22.174;2023-07-24T11:43:33;99972.19;;;31.87;47.64
50349;BME280;36250;48.740;22.174;2023-07-24T11:45:58;99962.22;;;32.00;47.89
50349;BME280;36250;48.740;22.174;2023-07-24T11:48:24;99961.41;;;32.07;48.00
50349;BME280;36250;48.740;22.174;2023-07-24T11:50:53;99952.56;;;32.15;46.26
50349;BME280;36250;48.740;22.174;2023-07-24T11:53:20;99954.53;;;31.94;47.01
50349;BME280;36250;48.740;22.174;2023-07-24T11:55:47;99953.72;;;31.97;48.25
50349;BME280;36250;48.740;22.174;2023-07-24T11:58:13;99946.94;;;32.19;47.68
50349;BME280;36250;48.740;22.174;2023-07-24T12:00:39;99942.50;;;32.46;46.50
50349;BME280;36250;48.740;22.174;2023-07-24T12:03:04;99940.47;;;32.43;46.53
50349;BME280;36250;48.740;22.174;2023-07-24T12:05:30;99943.34;;;32.57;46.76
50349;BME280;36250;48.740;22.174;2023-07-24T12:08:02;99946.94;;;32.47;45.78
50349;BME280;36250;48.740;22.174;2023-07-24T12:10:27;99948.97;;;32.39;46.81
50349;BME280;36250;48.740;22.174;2023-07-24T12:12:53;99950.19;;;32.56;45.80
50349;BME280;36250;48.740;22.174;2023-07-24T12:15:19;99932.44;;;32.48;45.51
50349;BME280;36250;48.740;22.174;2023-07-24T12:17:44;99927.63;;;32.49;45.45
50349;BME280;36250;48.740;22.174;2023-07-24T12:20:09;99922.75;;;32.81;45.66
50349;BME280;36250;48.740;22.174;2023-07-24T12:22:36;99921.50;;;32.89;45.92
50349;BME280;36250;48.740;22.174;2023-07-24T12:25:02;99912.97;;;33.25;44.54
50349;BME280;36250;48.740;22.174;2023-07-24T12:27:27;99903.66;;;33.35;44.27
50349;BME280;36250;48.740;22.174;2023-07-24T12:29:52;99900.97;;;33.03;44.40
50349;BME280;36250;48.740;22.174;2023-07-24T12:32:17;99891.31;;;32.79;45.28
50349;BME280;36250;48.740;22.174;2023-07-24T12:34:43;99889.78;;;32.57;45.25
50349;BME280;36250;48.740;22.174;2023-07-24T12:37:09;99876.88;;;32.49;45.54
50349;BME280;36250;48.740;22.174;2023-07-24T12:39:34;99882.13;;;32.47;45.89
50349;BME280;36250;48.740;22.174;2023-07-24T12:41:59;99879.72;;;32.53;44.54
50349;BME280;36250;48.740;22.174;2023-07-24T12:44:24;99863.91;;;32.90;45.27